Time;durP1;ratioP1;P1;durP2;ratioP2;P2;SDS_P1;SDS_P2;PMS_P1;PMS_P2;Temp;Humidity;BMP_temperature;BMP_pressure;BME280_temperature;BME280_humidity;BME280_pressure;Samples;Min_cycle;Max_cycle;Signal;HPM_P1;HPM_P2
2024/04/15 00:01:16;;;;;;;10.02;2.15;;;9.10;99.90;;;;;;5498908;26;20002;-69
2024/04/15 00:03:42;;;;;;;12.38;2.17;;;9.10;99.90;;;;;;5500118;26;20002;-70
2024/04/15 00:06:07;;;;;;;14.27;4.45;;;9.00;99.90;;;;;;5500228;26;20010;-69
2024/04/15 00:08:33;;;;;;;14.10;2.58;;;9.00;99.90;;;;;;5498520;26;20497;-69
2024/04/15 00:11:05;;;;;;;12.02;2.75;;;9.00;99.90;;;;;;5500375;26;20017;-69
2024/04/15 00:13:30;;;;;;;9.60;2.50;;;8.90;99.90;;;;;;5498396;26;19998;-70
2024/04/15 00:15:57;;;;;;;11.18;2.65;;;8.90;99.90;;;;;;5499740;26;20806;-69
2024/04/15 00:18:24;;;;;;;15.30;2.70;;;8.90;99.90;;;;;;5498370;26;19998;-69
2024/04/15 00:21:00;;;;;;;11.88;3.15;;;8.80;99.90;;;;;;5497760;26;19994;-70
2024/04/15 00:23:26;;;;;;;10.77;2.40;;;8.80;99.90;;;;;;5497725;26;20013;-69
2024/04/15 00:25:58;;;;;;;14.10;2.80;;;8.70;99.90;;;;;;5499716;26;20005;-69
2024/04/15 00:28:24;;;;;;;14.93;2.70;;;8.70;99.90;;;;;;5498964;26;20000;-69
2024/04/15 00:30:50;;;;;;;14.65;2.67;;;8.70;99.90;;;;;;5498814;26;20596;-69
2024/04/15 00:33:17;;;;;;;17.63;3.03;;;8.70;99.90;;;;;;5499854;26;20047;-70
2024/04/15 00:35:46;;;;;;;11.90;2.35;;;8.70;99.90;;;;;;5498441;26;20010;-69
2024/04/15 00:38:16;;;;;;;12.23;2.63;;;8.70;99.90;;;;;;5499333;26;20346;-69
2024/04/15 00:40:41;;;;;;;9.13;2.15;;;8.70;99.90;;;;;;5499656;26;20031;-69
2024/04/15 00:43:08;;;;;;;9.07;2.25;;;8.70;99.90;;;;;;5499220;26;20002;-69
2024/04/15 00:45:34;;;;;;;13.00;2.38;;;8.70;99.90;;;;;;5498547;26;20006;-70
2024/04/15 00:48:04;;;;;;;10.98;2.50;;;8.60;99.90;;;;;;5499466;26;19999;-70
2024/04/15 00:50:36;;;;;;;15.88;2.95;;;8.60;99.90;;;;;;5498330;26;20017;-70
2024/04/15 00:53:02;;;;;;;10.20;2.20;;;8.50;99.90;;;;;;5499513;26;20400;-70
2024/04/15 00:55:31;;;;;;;16.15;2.25;;;8.50;99.90;;;;;;5497475;26;20502;-69
2024/04/15 00:57:57;;;;;;;13.25;3.03;;;8.40;99.90;;;;;;5497700;26;19999;-70
2024/04/15 01:00:23;;;;;;;10.32;2.65;;;8.40;99.90;;;;;;5499472;26;20323;-70
2024/04/15 01:02:50;;;;;;;9.05;2.78;;;8.30;99.90;;;;;;5497633;26;20002;-69
2024/04/15 01:05:15;;;;;;;13.82;2.40;;;8.30;99.90;;;;;;5499229;26;20002;-70
2024/04/15 01:07:41;;;;;;;20.58;2.78;;;8.20;99.90;;;;;;5498668;26;19998;-70
2024/04/15 01:10:07;;;;;;;11.90;2.58;;;8.20;99.90;;;;;;5498919;26;20021;-70
2024/04/15 01:12:34;;;;;;;17.90;2.92;;;8.20;99.90;;;;;;5498076;26;20006;-71
2024/04/15 01:15:00;;;;;;;9.98;1.98;;;8.20;99.90;;;;;;5499001;26;19997;-70
2024/04/15 01:17:26;;;;;;;12.32;2.33;;;8.20;99.90;;;;;;5498870;26;20075;-70
2024/04/15 01:19:54;;;;;;;11.57;2.10;;;8.20;99.90;;;;;;5498211;26;20009;-69
2024/04/15 01:22:23;;;;;;;14.52;2.10;;;8.20;99.90;;;;;;5498722;26;19998;-69
2024/04/15 01:24:49;;;;;;;17.50;2.70;;;8.20;99.90;;;;;;5496786;26;20490;-71
2024/04/15 01:27:15;;;;;;;12.43;2.88;;;8.20;99.90;;;;;;5498851;26;20002;-70
2024/04/15 01:29:41;;;;;;;13.00;2.67;;;8.30;99.90;;;;;;5497587;26;19998;-71
2024/04/15 01:32:07;;;;;;;14.07;2.50;;;8.30;99.90;;;;;;5498219;26;20046;-70
2024/04/15 01:34:33;;;;;;;15.65;2.70;;;8.30;99.90;;;;;;5498662;26;20006;-69
2024/04/15 01:36:59;;;;;;;15.65;2.50;;;8.40;99.90;;;;;;5497239;26;20055;-70
2024/04/15 01:39:24;;;;;;;12.07;2.22;;;8.30;99.90;;;;;;5496797;26;20006;-69
2024/04/15 01:41:50;;;;;;;19.50;2.83;;;8.30;99.90;;;;;;5495844;26;20010;-70
2024/04/15 01:44:16;;;;;;;9.90;2.67;;;8.30;99.90;;;;;;5496827;26;20400;-70
2024/04/15 01:46:42;;;;;;;14.25;2.47;;;8.30;99.90;;;;;;5497244;26;20012;-70
2024/04/15 01:49:08;;;;;;;14.95;2.63;;;8.30;99.90;;;;;;5498942;26;20427;-70
2024/04/15 01:51:33;;;;;;;9.63;2.53;;;8.20;99.90;;;;;;5495352;26;19994;-69
2024/04/15 01:53:59;;;;;;;12.75;2.60;;;8.20;99.90;;;;;;5498543;26;20008;-70
2024/04/15 01:56:24;;;;;;;14.65;2.72;;;8.20;99.90;;;;;;5497150;26;20010;-71
2024/04/15 01:58:50;;;;;;;9.70;2.28;;;8.20;99.90;;;;;;5495600;26;20007;-69
2024/04/15 02:01:15;;;;;;;12.75;2.42;;;8.10;99.90;;;;;;5497960;26;20017;-70
2024/04/15 02:03:42;;;;;;;15.60;2.63;;;8.10;99.90;;;;;;5497636;26;21478;-69
2024/04/15 02:06:08;;;;;;;15.82;2.50;;;8.10;99.90;;;;;;5497510;26;20009;-71
2024/04/15 02:08:34;;;;;;;17.48;2.75;;;8.00;99.90;;;;;;5495748;26;19998;-69
2024/04/15 02:10:59;;;;;;;10.23;2.25;;;8.10;99.90;;;;;;5498564;26;20017;-69
2024/04/15 02:13:25;;;;;;;17.42;2.92;;;8.00;99.90;;;;;;5496827;26;19998;-70
2024/04/15 02:15:51;;;;;;;12.60;2.50;;;8.00;99.90;;;;;;5498429;26;20335;-70
2024/04/15 02:18:16;;;;;;;13.43;2.17;;;8.00;99.90;;;;;;5496816;26;20051;-70
2024/04/15 02:20:42;;;;;;;10.55;2.30;;;7.90;99.90;;;;;;5497878;26;19998;-70
2024/04/15 02:23:08;;;;;;;17.60;2.88;;;7.90;99.90;;;;;;5497269;26;20013;-70
2024/04/15 02:25:34;;;;;;;12.55;2.70;;;7.90;99.90;;;;;;5493961;26;20003;-70
2024/04/15 02:28:00;;;;;;;17.40;2.85;;;7.80;99.90;;;;;;5498016;26;19998;-70
2024/04/15 02:30:26;;;;;;;12.85;2.70;;;7.80;99.90;;;;;;5497145;26;20052;-70
2024/04/15 02:32:51;;;;;;;18.98;2.95;;;7.70;99.90;;;;;;5497752;26;20017;-70
2024/04/15 02:35:17;;;;;;;14.40;2.70;;;7.60;99.90;;;;;;5496296;26;19998;-70
2024/04/15 02:37:42;;;;;;;12.48;2.88;;;7.60;99.90;;;;;;5497839;26;19998;-70
2024/04/15 02:40:08;;;;;;;10.13;2.42;;;7.50;99.90;;;;;;5498030;26;19998;-69
2024/04/15 02:42:34;;;;;;;12.93;2.60;;;7.40;99.90;;;;;;5497866;26;20017;-71
2024/04/15 02:45:00;;;;;;;12.57;2.72;;;7.40;99.90;;;;;;5497707;26;20006;-69
2024/04/15 02:47:25;;;;;;;15.48;3.33;;;7.30;99.90;;;;;;5496611;26;20013;-70
2024/04/15 02:49:51;;;;;;;12.55;2.72;;;7.20;99.90;;;;;;5497831;26;19998;-69
2024/04/15 02:52:17;;;;;;;14.95;2.78;;;7.20;99.90;;;;;;5496501;26;20014;-70
2024/04/15 02:54:42;;;;;;;12.02;3.13;;;7.20;99.90;;;;;;5497283;26;20002;-71
2024/04/15 02:57:08;;;;;;;14.18;2.80;;;7.10;99.90;;;;;;5496505;26;20016;-71
2024/04/15 02:59:34;;;;;;;13.52;3.08;;;7.10;99.90;;;;;;5495098;26;20006;-70
2024/04/15 03:01:59;;;;;;;8.95;2.53;;;7.10;99.90;;;;;;5496365;26;20029;-70
2024/04/15 03:04:25;;;;;;;13.98;2.83;;;7.10;99.90;;;;;;5496165;26;19999;-70
2024/04/15 03:06:53;;;;;;;12.95;2.65;;;7.00;99.90;;;;;;5497459;26;20002;-70
2024/04/15 03:09:21;;;;;;;10.88;3.00;;;7.00;99.90;;;;;;5496401;26;19999;-70
2024/04/15 03:11:47;;;;;;;19.10;3.33;;;7.00;99.90;;;;;;5495683;26;20042;-70
2024/04/15 03:14:13;;;;;;;18.73;3.65;;;7.00;99.90;;;;;;5496745;26;20013;-70
2024/04/15 03:16:39;;;;;;;12.93;3.33;;;7.00;99.90;;;;;;5494681;26;20010;-70
2024/04/15 03:19:04;;;;;;;13.48;2.92;;;7.10;99.90;;;;;;5498990;26;20085;-71
2024/04/15 03:21:30;;;;;;;10.07;2.97;;;7.10;99.90;;;;;;5499688;26;20022;-70
2024/04/15 03:23:56;;;;;;;11.23;2.47;;;7.10;99.90;;;;;;5493542;26;20006;-70
2024/04/15 03:26:22;;;;;;;12.70;3.00;;;7.10;99.90;;;;;;5495662;26;19994;-70
2024/04/15 03:28:47;;;;;;;9.88;2.78;;;7.10;99.90;;;;;;5498136;26;20010;-70
2024/04/15 03:31:13;;;;;;;13.70;3.08;;;7.10;99.90;;;;;;5500034;26;20431;-70
2024/04/15 03:33:41;;;;;;;15.23;2.97;;;7.10;99.90;;;;;;5498947;26;19998;-70
2024/04/15 03:36:07;;;;;;;13.57;2.97;;;7.10;99.90;;;;;;5498564;26;20038;-70
2024/04/15 03:38:33;;;;;;;9.40;2.80;;;7.10;99.90;;;;;;5500012;26;20085;-71
2024/04/15 03:40:58;;;;;;;17.08;2.85;;;7.20;99.90;;;;;;5499009;26;20014;-70
2024/04/15 03:43:25;;;;;;;16.60;2.70;;;7.20;99.90;;;;;;5499187;26;20010;-70
2024/04/15 03:45:50;;;;;;;14.95;3.50;;;7.20;99.90;;;;;;5499489;26;20089;-70
2024/04/15 03:48:16;;;;;;;13.65;3.03;;;7.20;99.90;;;;;;5499098;26;20476;-70
2024/04/15 03:50:41;;;;;;;19.52;3.25;;;7.20;99.90;;;;;;5499940;26;20009;-70
2024/04/15 03:53:07;;;;;;;13.23;2.95;;;7.20;99.90;;;;;;5499066;26;19998;-71
2024/04/15 03:55:32;;;;;;;11.90;3.08;;;7.20;99.90;;;;;;5500409;26;20001;-69
2024/04/15 03:57:59;;;;;;;11.70;3.08;;;7.30;99.90;;;;;;5496030;26;20002;-70
2024/04/15 04:00:24;;;;;;;11.02;2.90;;;7.20;99.90;;;;;;5499362;26;20006;-70
2024/04/15 04:02:50;;;;;;;11.23;3.28;;;7.30;99.90;;;;;;5498854;26;20009;-70
2024/04/15 04:05:15;;;;;;;16.55;3.30;;;7.30;99.90;;;;;;5499111;26;19997;-70
2024/04/15 04:07:41;;;;;;;16.23;3.35;;;7.30;99.90;;;;;;5498609;26;20067;-70
2024/04/15 04:10:06;;;;;;;7.88;2.90;;;7.30;99.90;;;;;;5497656;26;19998;-70
2024/04/15 04:12:32;;;;;;;11.40;3.20;;;7.40;99.90;;;;;;5497745;26;20002;-71
2024/04/15 04:14:58;;;;;;;18.38;4.72;;;7.40;99.90;;;;;;5498697;26;20002;-70
2024/04/15 04:17:23;;;;;;;16.55;4.38;;;7.40;99.90;;;;;;5494733;26;20013;-70
2024/04/15 04:19:49;;;;;;;20.35;4.22;;;7.40;99.90;;;;;;5499030;26;20419;-70
2024/04/15 04:22:14;;;;;;;16.27;3.88;;;7.40;99.90;;;;;;5497321;26;20002;-71
2024/04/15 04:24:40;;;;;;;8.82;3.67;;;7.50;99.90;;;;;;5495746;26;19994;-71
2024/04/15 04:27:06;;;;;;;11.40;3.78;;;7.50;99.90;;;;;;5496781;26;19998;-70
2024/04/15 04:29:35;;;;;;;12.88;3.50;;;7.50;99.90;;;;;;5496547;26;19994;-70
2024/04/15 04:32:01;;;;;;;12.35;3.58;;;7.60;99.90;;;;;;5498011;26;20008;-70
2024/04/15 04:34:27;;;;;;;12.85;3.00;;;7.60;99.90;;;;;;5498987;26;20076;-69
2024/04/15 04:36:52;;;;;;;14.45;3.63;;;7.60;99.90;;;;;;5498188;26;19994;-71
2024/04/15 04:39:18;;;;;;;13.25;3.15;;;7.50;99.90;;;;;;5498214;26;19998;-70
2024/04/15 04:41:43;;;;;;;15.45;3.17;;;7.60;99.90;;;;;;5499946;26;20023;-70
2024/04/15 04:44:09;;;;;;;13.77;3.20;;;7.60;99.90;;;;;;5498856;26;20012;-71
2024/04/15 04:46:34;;;;;;;10.30;2.85;;;7.60;99.90;;;;;;5498039;26;20010;-70
2024/04/15 04:49:00;;;;;;;11.48;3.20;;;7.60;99.90;;;;;;5499796;26;20056;-70
2024/04/15 04:51:26;;;;;;;17.15;3.20;;;7.50;99.90;;;;;;5498468;26;20013;-70
2024/04/15 04:53:51;;;;;;;9.88;2.95;;;7.50;99.90;;;;;;5497640;26;19998;-70
2024/04/15 04:56:17;;;;;;;13.60;2.88;;;7.50;99.90;;;;;;5497642;26;20082;-70
2024/04/15 04:58:43;;;;;;;11.25;2.80;;;7.40;99.90;;;;;;5497458;26;20005;-70
2024/04/15 05:01:15;;;;;;;11.77;2.72;;;7.50;99.90;;;;;;5497420;26;20006;-70
2024/04/15 05:03:49;;;;;;;15.65;2.83;;;7.40;99.90;;;;;;5498351;26;19995;-70
2024/04/15 05:06:16;;;;;;;7.20;2.50;;;7.40;99.90;;;;;;5496931;26;20022;-70
2024/04/15 05:08:44;;;;;;;11.40;3.03;;;7.40;99.90;;;;;;5479952;26;20009;-70
2024/04/15 05:11:09;;;;;;;13.35;2.60;;;7.50;99.90;;;;;;5478782;26;20017;-69
2024/04/15 05:13:35;;;;;;;13.77;3.17;;;7.50;99.90;;;;;;5491115;26;19994;-70
2024/04/15 05:16:03;;;;;;;11.63;2.53;;;7.50;99.90;;;;;;5495630;26;19998;-70
2024/04/15 05:18:29;;;;;;;8.82;2.47;;;7.50;99.90;;;;;;5493714;26;20743;-70
2024/04/15 05:20:54;;;;;;;12.88;2.72;;;7.60;99.90;;;;;;5497927;26;20006;-70
2024/04/15 05:23:20;;;;;;;11.15;2.25;;;7.60;99.90;;;;;;5498708;26;20010;-70
2024/04/15 05:25:45;;;;;;;10.73;2.40;;;7.60;99.90;;;;;;5498376;26;20051;-70
2024/04/15 05:28:11;;;;;;;6.97;1.98;;;7.60;99.90;;;;;;5497630;26;20006;-70
2024/04/15 05:30:36;;;;;;;8.13;2.45;;;7.60;99.90;;;;;;5499194;26;19998;-71
2024/04/15 05:33:02;;;;;;;7.97;2.40;;;7.60;99.90;;;;;;5496873;26;19998;-71
2024/04/15 05:35:28;;;;;;;10.82;2.88;;;7.60;99.90;;;;;;5497451;26;20027;-71
2024/04/15 05:37:53;;;;;;;8.48;2.95;;;7.70;99.90;;;;;;5497187;26;20014;-70
2024/04/15 05:40:19;;;;;;;10.63;2.33;;;7.70;99.90;;;;;;5496614;26;21370;-70
2024/04/15 05:42:44;;;;;;;14.88;2.70;;;7.80;99.90;;;;;;5492347;26;19998;-69
2024/04/15 05:45:10;;;;;;;10.32;2.50;;;7.90;99.90;;;;;;5495974;26;20330;-70
2024/04/15 05:47:36;;;;;;;8.07;2.65;;;7.90;99.90;;;;;;5496767;26;19994;-71
2024/04/15 05:50:02;;;;;;;7.93;2.28;;;8.00;99.90;;;;;;5497242;26;20445;-70
2024/04/15 05:52:27;;;;;;;11.48;2.20;;;8.00;99.90;;;;;;5495912;26;20010;-71
2024/04/15 05:54:53;;;;;;;9.43;2.78;;;8.00;99.90;;;;;;5494879;26;20013;-70
2024/04/15 05:57:18;;;;;;;6.00;2.13;;;8.10;99.90;;;;;;5498573;26;20013;-70
2024/04/15 05:59:44;;;;;;;6.72;2.28;;;8.10;99.90;;;;;;5497567;26;20005;-70
2024/04/15 06:02:09;;;;;;;9.70;2.70;;;8.10;99.90;;;;;;5498080;26;19998;-72
2024/04/15 06:04:35;;;;;;;7.78;2.17;;;8.10;99.90;;;;;;5497853;26;20071;-70
2024/04/15 06:07:04;;;;;;;12.40;2.42;;;8.10;99.90;;;;;;5497826;26;19998;-71
2024/04/15 06:09:30;;;;;;;8.70;2.28;;;8.10;99.90;;;;;;5496909;26;20002;-70
2024/04/15 06:11:56;;;;;;;10.52;2.50;;;8.10;99.90;;;;;;5497051;26;20020;-71
2024/04/15 06:14:22;;;;;;;5.00;2.10;;;8.10;99.90;;;;;;5492213;26;19998;-70
2024/04/15 06:16:52;;;;;;;6.10;2.55;;;8.10;99.90;;;;;;5494827;26;20002;-70
2024/04/15 06:19:18;;;;;;;12.65;2.42;;;8.10;99.90;;;;;;5495184;26;20006;-70
2024/04/15 06:21:44;;;;;;;8.90;2.42;;;8.20;99.90;;;;;;5497917;26;19998;-69
2024/04/15 06:24:09;;;;;;;9.10;2.47;;;8.20;99.90;;;;;;5496941;26;20010;-70
2024/04/15 06:26:37;;;;;;;7.47;2.40;;;8.30;99.90;;;;;;5497774;26;20005;-72
2024/04/15 06:29:03;;;;;;;8.50;2.75;;;8.40;99.90;;;;;;5491368;26;19998;-69
2024/04/15 06:31:32;;;;;;;10.05;3.05;;;8.40;99.90;;;;;;5492167;26;20084;-71
2024/04/15 06:34:01;;;;;;;9.32;3.13;;;8.60;99.90;;;;;;5488792;26;20017;-70
2024/04/15 06:36:28;;;;;;;9.50;3.40;;;8.60;99.90;;;;;;5488392;26;20001;-70
2024/04/15 06:38:53;;;;;;;10.75;3.30;;;8.70;99.90;;;;;;5491284;26;20025;-71
2024/04/15 06:41:19;;;;;;;6.50;3.33;;;8.70;99.90;;;;;;5490679;26;19998;-72
2024/04/15 06:43:45;;;;;;;10.73;4.40;;;8.90;99.90;;;;;;5488512;26;19998;-69
2024/04/15 06:46:10;;;;;;;13.52;4.82;;;8.90;99.90;;;;;;5493745;26;20036;-72
2024/04/15 06:48:36;;;;;;;11.52;5.25;;;9.00;99.90;;;;;;5496978;26;19998;-70
2024/04/15 06:51:02;;;;;;;16.20;5.82;;;9.00;99.90;;;;;;5497576;26;19990;-70
2024/04/15 06:53:28;;;;;;;15.82;5.80;;;9.10;99.90;;;;;;5495166;26;20013;-69
2024/04/15 06:55:54;;;;;;;13.43;6.32;;;9.20;99.90;;;;;;5496968;26;20013;-70
2024/04/15 06:58:20;;;;;;;19.73;6.45;;;9.20;99.90;;;;;;5496766;26;20013;-71
2024/04/15 07:00:46;;;;;;;14.80;6.53;;;9.30;99.90;;;;;;5496455;26;20474;-70
2024/04/15 07:03:11;;;;;;;17.55;7.00;;;9.40;99.90;;;;;;5495655;26;20013;-69
2024/04/15 07:05:37;;;;;;;17.27;6.47;;;9.50;99.90;;;;;;5495356;26;19998;-71
2024/04/15 07:08:04;;;;;;;17.17;6.18;;;9.60;99.90;;;;;;5497498;26;20018;-70
2024/04/15 07:10:31;;;;;;;16.48;5.80;;;9.70;99.90;;;;;;5492252;26;20013;-70
2024/04/15 07:12:57;;;;;;;17.67;5.68;;;9.70;99.90;;;;;;5494968;26;20002;-71
2024/04/15 07:15:22;;;;;;;10.95;5.30;;;9.80;99.90;;;;;;5496151;26;20002;-70
2024/04/15 07:17:48;;;;;;;12.10;5.28;;;9.90;99.90;;;;;;5489111;26;20021;-70
2024/04/15 07:20:13;;;;;;;13.70;6.13;;;10.00;99.90;;;;;;5492982;26;19994;-70
2024/04/15 07:22:39;;;;;;;15.02;5.00;;;10.10;99.90;;;;;;5495327;26;19994;-71
2024/04/15 07:25:05;;;;;;;18.77;5.50;;;10.20;99.90;;;;;;5494109;26;19998;-70
2024/04/15 07:27:34;;;;;;;11.25;5.28;;;10.30;99.90;;;;;;5490878;26;20021;-70
2024/04/15 07:30:00;;;;;;;17.77;5.05;;;10.40;99.90;;;;;;5486834;26;20044;-70
2024/04/15 07:32:26;;;;;;;14.93;5.82;;;10.60;99.90;;;;;;5491759;26;20002;-69
2024/04/15 07:34:52;;;;;;;14.73;5.60;;;10.70;99.90;;;;;;5486816;26;20342;-68
2024/04/15 07:37:17;;;;;;;14.40;5.07;;;10.80;99.90;;;;;;5494275;26;20457;-70
2024/04/15 07:39:46;;;;;;;13.13;5.20;;;10.80;99.90;;;;;;5495377;26;20006;-70
2024/04/15 07:42:12;;;;;;;22.30;6.28;;;10.80;99.90;;;;;;5492927;26;20005;-71
2024/04/15 07:44:37;;;;;;;17.67;6.05;;;10.90;99.90;;;;;;5485301;26;19999;-70
2024/04/15 07:47:03;;;;;;;12.68;5.30;;;11.00;99.90;;;;;;5485263;26;20006;-71
2024/04/15 07:49:29;;;;;;;18.30;5.75;;;11.20;99.90;;;;;;5489285;26;20005;-70
2024/04/15 07:51:54;;;;;;;16.60;5.95;;;11.30;99.90;;;;;;5487480;26;20006;-70
2024/04/15 07:54:20;;;;;;;15.68;6.70;;;11.30;99.90;;;;;;5491468;26;20006;-71
2024/04/15 07:56:45;;;;;;;12.90;5.75;;;11.30;99.90;;;;;;5493616;26;19998;-71
2024/04/15 07:59:11;;;;;;;15.93;6.00;;;11.40;99.90;;;;;;5494006;26;20010;-71
2024/04/15 08:01:36;;;;;;;16.55;5.90;;;11.30;99.90;;;;;;5495195;26;19994;-73
2024/04/15 08:04:02;;;;;;;13.07;5.75;;;11.30;99.90;;;;;;5493279;26;20323;-73
2024/04/15 08:06:28;;;;;;;17.88;6.40;;;11.30;99.90;;;;;;5491463;26;20006;-70
2024/04/15 08:08:54;;;;;;;15.73;5.55;;;11.30;99.90;;;;;;5492633;26;20002;-71
2024/04/15 08:11:19;;;;;;;15.80;5.57;;;11.30;99.90;;;;;;5492616;26;20001;-70
2024/04/15 08:13:45;;;;;;;13.68;5.82;;;11.40;99.90;;;;;;5496788;26;20005;-71
2024/04/15 08:16:11;;;;;;;21.10;6.78;;;11.60;99.90;;;;;;5496693;26;19994;-73
2024/04/15 08:18:37;;;;;;;17.30;7.03;;;11.80;99.90;;;;;;5493703;26;20332;-71
2024/04/15 08:21:03;;;;;;;15.65;5.78;;;11.80;99.90;;;;;;5496408;26;19998;-72
2024/04/15 08:23:28;;;;;;;16.85;5.88;;;12.00;99.90;;;;;;5493027;26;19998;-69
2024/04/15 08:25:55;;;;;;;14.48;5.70;;;12.20;99.90;;;;;;5493839;26;19998;-69
2024/04/15 08:28:22;;;;;;;18.30;5.70;;;12.40;99.90;;;;;;5495394;26;19998;-69
2024/04/15 08:30:47;;;;;;;12.85;6.07;;;12.60;99.90;;;;;;5489684;26;19994;-69
2024/04/15 08:33:13;;;;;;;16.58;5.88;;;12.70;99.90;;;;;;5496611;26;20013;-70
2024/04/15 08:35:39;;;;;;;17.70;5.63;;;12.80;99.90;;;;;;5497266;26;20323;-69
2024/04/15 08:38:06;;;;;;;15.13;5.53;;;12.80;99.90;;;;;;5496041;26;20006;-70
2024/04/15 08:40:32;;;;;;;14.82;5.18;;;12.70;99.90;;;;;;5496837;26;20010;-72
2024/04/15 08:43:03;;;;;;;13.90;5.13;;;12.60;99.90;;;;;;5495868;26;20108;-70
2024/04/15 08:45:31;;;;;;;9.50;4.55;;;12.60;99.90;;;;;;5493263;26;20017;-70
2024/04/15 08:47:58;;;;;;;12.43;4.35;;;12.60;99.90;;;;;;5496259;26;20054;-72
2024/04/15 08:50:25;;;;;;;12.95;5.13;;;12.60;99.90;;;;;;5494848;26;20009;-71
2024/04/15 08:52:55;;;;;;;15.05;5.32;;;12.50;99.90;;;;;;5490655;26;20003;-69
2024/04/15 08:55:22;;;;;;;19.00;5.80;;;12.40;99.90;;;;;;5489151;26;19990;-69
2024/04/15 08:57:49;;;;;;;13.50;5.35;;;12.40;99.90;;;;;;5486322;26;20002;-70
2024/04/15 09:00:20;;;;;;;14.50;5.15;;;12.40;99.90;;;;;;5492686;26;19990;-70
2024/04/15 09:02:48;;;;;;;11.90;4.97;;;12.40;99.90;;;;;;5495947;26;20017;-73
2024/04/15 09:05:14;;;;;;;11.88;5.13;;;12.60;99.90;;;;;;5495679;26;20009;-71
2024/04/15 09:07:40;;;;;;;19.45;5.20;;;12.70;99.90;;;;;;5494916;26;19998;-70
2024/04/15 09:10:07;;;;;;;13.13;4.70;;;12.90;99.90;;;;;;5498998;26;20005;-71
2024/04/15 09:12:41;;;;;;;16.38;5.18;;;13.30;99.90;;;;;;5497458;26;20463;-69
2024/04/15 09:15:09;;;;;;;16.25;5.45;;;13.50;99.90;;;;;;5493146;26;20010;-72
2024/04/15 09:17:36;;;;;;;15.30;4.95;;;13.70;99.90;;;;;;5488846;26;20462;-70
2024/04/15 09:20:03;;;;;;;21.48;4.90;;;13.80;99.90;;;;;;5493902;26;20731;-69
2024/04/15 09:22:33;;;;;;;16.77;4.85;;;13.70;99.90;;;;;;5497008;26;20046;-70
2024/04/15 09:25:01;;;;;;;12.50;5.07;;;13.90;99.90;;;;;;5498385;26;19994;-71
2024/04/15 09:27:27;;;;;;;17.77;5.00;;;13.90;99.90;;;;;;5495948;26;20006;-70
2024/04/15 09:29:53;;;;;;;14.98;5.53;;;13.90;99.90;;;;;;5497236;26;20002;-71
2024/04/15 09:32:19;;;;;;;16.08;4.78;;;13.70;99.90;;;;;;5496807;26;20009;-73
2024/04/15 09:34:45;;;;;;;14.63;4.78;;;13.80;99.90;;;;;;5495948;26;20187;-74
2024/04/15 09:37:11;;;;;;;18.42;5.30;;;13.80;99.90;;;;;;5497257;26;20014;-72
2024/04/15 09:39:37;;;;;;;13.43;5.38;;;13.70;99.90;;;;;;5497082;26;20017;-72
2024/04/15 09:42:05;;;;;;;17.20;5.75;;;13.50;99.90;;;;;;5498035;26;20006;-71
2024/04/15 09:44:32;;;;;;;16.55;5.63;;;13.40;99.90;;;;;;5496377;26;20006;-72
2024/04/15 09:47:02;;;;;;;14.38;5.32;;;13.50;99.90;;;;;;5498289;26;20008;-70
2024/04/15 09:49:29;;;;;;;14.68;5.47;;;13.60;99.90;;;;;;5490579;26;20061;-70
2024/04/15 09:52:03;;;;;;;13.45;5.38;;;13.40;99.90;;;;;;5495111;26;19998;-71
2024/04/15 09:54:33;;;;;;;14.32;6.28;;;13.20;99.90;;;;;;5495987;26;20493;-70
2024/04/15 09:57:19;;;;;;;14.20;5.95;;;13.00;99.90;;;;;;5495644;26;20005;-69
2024/04/15 09:59:52;;;;;;;20.27;6.63;;;12.80;99.90;;;;;;5480454;26;20018;-71
2024/04/15 10:02:50;;;;;;;16.30;5.90;;;12.50;99.90;;;;;;5484621;26;20013;-73
2024/04/15 10:05:24;;;;;;;18.85;7.97;;;12.60;99.90;;;;;;5498650;26;20376;-71
2024/04/15 10:07:52;;;;;;;16.23;7.82;;;12.70;99.90;;;;;;5493856;26;20061;-69
2024/04/15 10:10:19;;;;;;;16.42;6.90;;;12.80;99.90;;;;;;5490166;26;20002;-71
2024/04/15 10:12:48;;;;;;;14.43;6.38;;;12.70;99.90;;;;;;5492698;26;20005;-69
2024/04/15 10:15:14;;;;;;;21.48;7.07;;;12.60;99.90;;;;;;5493605;26;19995;-72
2024/04/15 10:17:40;;;;;;;16.80;7.20;;;12.40;99.90;;;;;;5495213;26;20018;-74
2024/04/15 10:20:12;;;;;;;25.60;8.57;;;12.30;99.90;;;;;;5495811;26;19994;-70
2024/04/15 10:22:39;;;;;;;18.75;8.77;;;12.20;99.90;;;;;;5495919;26;20013;-75
2024/04/15 10:25:07;;;;;;;17.17;8.32;;;12.20;99.90;;;;;;5495808;26;20020;-70
2024/04/15 10:27:33;;;;;;;19.23;9.05;;;12.10;99.90;;;;;;5494497;26;19994;-72
2024/04/15 10:29:59;;;;;;;25.20;9.82;;;12.20;99.90;;;;;;5497744;26;20474;-69
2024/04/15 10:32:28;;;;;;;19.42;8.63;;;12.30;99.90;;;;;;5496051;26;20010;-70
2024/04/15 10:34:54;;;;;;;21.67;8.55;;;12.40;99.90;;;;;;5494815;26;20737;-70
2024/04/15 10:37:28;;;;;;;17.92;7.47;;;12.60;99.90;;;;;;5496977;26;20017;-70
2024/04/15 10:40:00;;;;;;;19.25;7.13;;;12.70;99.90;;;;;;5497548;26;20044;-70
2024/04/15 10:42:26;;;;;;;15.77;6.38;;;12.90;99.90;;;;;;5497395;26;20142;-72
2024/04/15 10:44:52;;;;;;;15.68;6.75;;;13.10;99.90;;;;;;5496077;26;19995;-69
2024/04/15 10:47:17;;;;;;;16.73;6.43;;;13.20;99.90;;;;;;5487928;26;20006;-70
2024/04/15 10:49:43;;;;;;;14.07;6.30;;;13.10;99.90;;;;;;5490643;26;20017;-69
2024/04/15 10:52:08;;;;;;;10.85;6.57;;;13.10;99.90;;;;;;5489028;26;19998;-72
2024/04/15 10:54:35;;;;;;;17.27;7.53;;;12.90;99.90;;;;;;5490881;26;20001;-69
2024/04/15 10:57:01;;;;;;;15.38;7.40;;;12.70;99.90;;;;;;5494376;26;20053;-71
2024/04/15 10:59:28;;;;;;;13.52;6.85;;;12.60;99.90;;;;;;5486451;26;20066;-70
2024/04/15 11:01:54;;;;;;;20.75;6.60;;;12.50;99.90;;;;;;5474804;26;20030;-71
2024/04/15 11:04:21;;;;;;;17.70;7.95;;;12.40;99.90;;;;;;5483862;26;19998;-72
2024/04/15 11:06:48;;;;;;;18.88;7.80;;;12.30;99.90;;;;;;5493817;26;20006;-70
2024/04/15 11:09:14;;;;;;;20.90;7.65;;;12.30;99.90;;;;;;5489978;26;20007;-70
2024/04/15 11:11:41;;;;;;;18.92;7.78;;;12.50;99.90;;;;;;5489276;26;19994;-70
2024/04/15 11:14:11;;;;;;;17.40;7.93;;;12.60;99.90;;;;;;5493536;26;20009;-71
2024/04/15 11:16:42;;;;;;;19.42;8.43;;;12.60;99.90;;;;;;5497298;26;20482;-69
2024/04/15 11:19:07;;;;;;;16.13;7.53;;;12.60;99.90;;;;;;5490368;26;20477;-70
2024/04/15 11:21:33;;;;;;;18.10;6.97;;;12.90;99.90;;;;;;5493425;26;20006;-70
2024/04/15 11:23:58;;;;;;;17.13;7.38;;;13.10;99.90;;;;;;5490992;26;20009;-70
2024/04/15 11:26:24;;;;;;;12.00;6.47;;;13.30;99.90;;;;;;5495554;26;20006;-71
2024/04/15 11:28:50;;;;;;;13.93;6.07;;;13.70;99.90;;;;;;5487125;26;19998;-73
2024/04/15 11:31:16;;;;;;;16.17;6.15;;;13.90;99.90;;;;;;5492017;26;20006;-70
2024/04/15 11:33:42;;;;;;;15.85;6.18;;;14.00;99.90;;;;;;5493133;26;19991;-72
2024/04/15 11:36:16;;;;;;;11.98;5.60;;;14.10;99.90;;;;;;5491829;26;20320;-72
2024/04/15 11:38:41;;;;;;;13.50;6.30;;;14.40;99.90;;;;;;5486075;26;19998;-72
2024/04/15 11:41:07;;;;;;;12.48;6.10;;;14.60;99.90;;;;;;5495225;26;19998;-76
2024/04/15 11:43:33;;;;;;;16.67;7.00;;;14.60;99.90;;;;;;5494356;26;20009;-75
2024/04/15 11:45:59;;;;;;;12.00;6.50;;;14.50;99.90;;;;;;5494981;26;20009;-74
2024/04/15 11:48:25;;;;;;;15.95;6.82;;;14.70;99.90;;;;;;5495062;26;19991;-70
2024/04/15 11:50:53;;;;;;;14.40;6.70;;;14.90;99.90;;;;;;5498505;26;19998;-70
2024/04/15 11:53:20;;;;;;;18.17;6.63;;;15.00;99.90;;;;;;5492769;26;20053;-72
2024/04/15 11:55:46;;;;;;;11.40;6.22;;;15.00;99.90;;;;;;5497483;26;20009;-72
2024/04/15 11:58:12;;;;;;;14.75;6.18;;;14.70;99.90;;;;;;5496543;26;20002;-71
2024/04/15 12:00:38;;;;;;;11.02;5.68;;;14.50;99.90;;;;;;5498598;26;20021;-72
2024/04/15 12:03:04;;;;;;;12.23;6.13;;;14.50;99.90;;;;;;5499418;26;20003;-70
2024/04/15 12:05:29;;;;;;;17.38;5.53;;;14.60;99.90;;;;;;5499518;26;20082;-75
2024/04/15 12:07:56;;;;;;;12.07;5.28;;;14.80;99.90;;;;;;5496480;26;20005;-73
2024/04/15 12:10:22;;;;;;;11.63;4.65;;;14.70;99.90;;;;;;5494522;26;20022;-70
2024/04/15 12:12:47;;;;;;;10.80;4.85;;;14.60;99.90;;;;;;5498162;26;20013;-70
2024/04/15 12:15:13;;;;;;;6.60;3.80;;;14.50;99.90;;;;;;5493592;26;20016;-71
2024/04/15 12:17:39;;;;;;;11.82;3.75;;;14.40;99.90;;;;;;5495145;26;20017;-76
2024/04/15 12:20:05;;;;;;;8.05;3.20;;;14.30;99.90;;;;;;5495601;26;19994;-76
2024/04/15 12:22:31;;;;;;;7.57;3.55;;;14.40;99.90;;;;;;5495887;26;21294;-70
2024/04/15 12:24:57;;;;;;;4.28;2.45;;;14.30;99.90;;;;;;5496646;26;20006;-74
2024/04/15 12:27:23;;;;;;;8.30;2.92;;;14.30;99.90;;;;;;5497662;26;20014;-73
2024/04/15 12:29:48;;;;;;;5.43;2.88;;;14.30;99.90;;;;;;5495740;26;20017;-72
2024/04/15 12:32:14;;;;;;;8.48;3.67;;;14.30;99.90;;;;;;5495420;26;20002;-72
2024/04/15 12:34:40;;;;;;;14.40;3.08;;;14.30;99.90;;;;;;5490448;26;19994;-75
2024/04/15 12:37:05;;;;;;;7.18;3.20;;;14.30;99.90;;;;;;5493922;26;20010;-70
2024/04/15 12:39:31;;;;;;;14.30;5.32;;;14.30;99.90;;;;;;5493309;26;20005;-71